This is the latest recevied weather packets stored in our database for station/object K3MV-13. If no packets are shown the sender has not sent any weather packets the latest 1 day(s).
| Time | Temp. | Humidity | Pressure | Rain* | Wind** | Luminosity | Snow |
|---|---|---|---|---|---|---|---|
| 1778034067 | 17.78° C | 51% | 1010 hPa | 0 mm | - | 0 W/m² | - |
| 1778033765 | 17.22° C | 52% | 1010 hPa | 0 mm | - | 0 W/m² | - |
| 1778033461 | 17.22° C | 54% | 1009.7 hPa | 0 mm | - | 0 W/m² | - |
| 1778033159 | 17.78° C | 53% | 1010 hPa | 0 mm | - | 0 W/m² | - |
| 1778032554 | 17.78° C | 50% | 1010.2 hPa | 0 mm | - | 0 W/m² | - |
| 1778032250 | 17.78° C | 51% | 1010.3 hPa | 0 mm | - | 0 W/m² | - |
| 1778031948 | 17.78° C | 52% | 1010.1 hPa | 0 mm | - | 0 W/m² | - |
| 1778031643 | 17.78° C | 51% | 1010.1 hPa | 0 mm | - | 0 W/m² | - |
| 1778031342 | 17.78° C | 51% | 1010.4 hPa | 0 mm | - | 0 W/m² | - |
| 1778031038 | 17.22° C | 52% | 1010.3 hPa | 0 mm | - | 0 W/m² | - |
| 1778030734 | 17.22° C | 52% | 1010.1 hPa | 0 mm | - | 0 W/m² | - |
| 1778030129 | 17.78° C | 51% | 1009.8 hPa | 0 mm | - | 0 W/m² | - |
| 1778029825 | 17.22° C | 51% | 1010.2 hPa | 0 mm | - | 0 W/m² | - |
| 1778029525 | 17.22° C | 52% | 1010 hPa | 0 mm | - | 0 W/m² | - |
| 1778028918 | 17.78° C | 50% | 1010 hPa | 0 mm | - | 0 W/m² | - |
| 1778028008 | 17.22° C | 51% | 1010.1 hPa | 0 mm | - | 0 W/m² | - |
| 1778027704 | 17.22° C | 52% | 1010 hPa | 0 mm | - | 0 W/m² | - |
| 1778027400 | 17.78° C | 51% | 1010 hPa | 0 mm | - | 0 W/m² | - |
| 1778027096 | 17.78° C | 49% | 1010.1 hPa | 0 mm | - | 1 W/m² | - |
| 1778026489 | 18.33° C | 48% | 1010 hPa | 0 mm | - | 2 W/m² | - |
| 1778024067 | 19.44° C | 45% | 1010 hPa | 0 mm | - | 21 W/m² | - |
| 1778021948 | 20° C | 42% | 1009.9 hPa | 0 mm | - | 52 W/m² | - |
| 1778021341 | 20.56° C | 41% | 1009.9 hPa | 0 mm | - | 55 W/m² | - |
| 1778017100 | 21.11° C | 42% | 1010.1 hPa | 0 mm | - | 149 W/m² | - |
| 1778016191 | 21.11° C | 43% | 1009.9 hPa | 0 mm | - | 159 W/m² | - |
* Rain latest hour (hover to see other rain measurements)
** Current wind speed in m/s (hover to see current wind gust speed)